Time;durP1;ratioP1;P1;durP2;ratioP2;P2;SDS_P1;SDS_P2;PMS_P1;PMS_P2;Temp;Humidity;BMP_temperature;BMP_pressure;BME280_temperature;BME280_humidity;BME280_pressure;Samples;Min_cycle;Max_cycle;Signal;HPM_P1;HPM_P2
2020/12/06 00:01:57;;;;;;;24.12;15.35;;;;;;;-1.97;74.70;102114.34;1784511;80;20993;-52
2020/12/06 00:04:35;;;;;;;26.52;15.50;;;;;;;-1.92;74.56;102114.25;1814618;79;28164;-51
2020/12/06 00:07:05;;;;;;;25.08;15.43;;;;;;;-1.98;74.63;102115.37;1788003;80;21025;-51
2020/12/06 00:09:34;;;;;;;20.40;13.58;;;;;;;-1.97;74.39;102123.78;1787691;80;21013;-52
2020/12/06 00:12:08;;;;;;;25.10;15.78;;;;;;;-1.98;74.26;102124.28;1787826;80;21730;-52
2020/12/06 00:14:40;;;;;;;25.32;15.45;;;;;;;-2.01;74.06;102119.72;1787880;80;21006;-52
2020/12/06 00:17:08;;;;;;;30.88;16.87;;;;;;;-2.05;73.91;102121.00;1788074;80;20997;-52
2020/12/06 00:19:38;;;;;;;27.77;17.35;;;;;;;-2.06;73.99;102123.34;1787828;80;20982;-52
2020/12/06 00:22:13;;;;;;;32.28;20.77;;;;;;;-2.09;73.52;102120.44;1787819;80;21200;-52
2020/12/06 00:24:41;;;;;;;21.97;14.70;;;;;;;-2.16;73.46;102125.58;1788348;80;21568;-52
2020/12/06 00:27:11;;;;;;;23.98;15.80;;;;;;;-2.15;73.35;102128.60;1787831;80;20998;-51
2020/12/06 00:29:45;;;;;;;26.12;15.32;;;;;;;-2.18;73.41;102128.06;1787873;80;20994;-52
2020/12/06 00:32:12;;;;;;;25.72;15.03;;;;;;;-2.17;73.50;102130.61;1787266;80;21065;-51
2020/12/06 00:34:45;;;;;;;23.05;15.10;;;;;;;-2.18;72.84;102123.52;1787771;80;21390;-52
2020/12/06 00:37:19;;;;;;;24.32;15.85;;;;;;;-2.24;72.71;102124.13;1787627;80;21053;-52
2020/12/06 00:39:50;;;;;;;21.57;14.80;;;;;;;-2.27;72.69;102125.77;1787171;80;21057;-52
2020/12/06 00:42:17;;;;;;;22.17;13.60;;;;;;;-2.29;72.49;102133.98;1787629;80;21052;-52
2020/12/06 00:44:45;;;;;;;21.80;13.32;;;;;;;-2.30;72.31;102130.94;1787911;80;21575;-52
2020/12/06 00:47:14;;;;;;;23.40;14.87;;;;;;;-2.32;72.12;102124.00;1787866;80;22343;-51
2020/12/06 00:49:44;;;;;;;22.82;15.25;;;;;;;-2.38;72.09;102117.86;1787895;80;20946;-52
2020/12/06 00:52:13;;;;;;;30.32;16.48;;;;;;;-2.41;72.30;102116.31;1787955;80;21464;-51
2020/12/06 00:54:46;;;;;;;27.45;15.85;;;;;;;-2.45;72.25;102117.08;1787563;80;20993;-52
2020/12/06 00:57:14;;;;;;;18.62;13.50;;;;;;;-2.49;71.87;102119.70;1787122;80;21025;-52
2020/12/06 00:59:41;;;;;;;23.92;15.38;;;;;;;-2.52;71.90;102125.89;1785482;80;21391;-51
2020/12/06 01:02:11;;;;;;;20.85;15.25;;;;;;;-2.56;71.73;102117.75;1719696;83;21659;-52
2020/12/06 01:04:42;;;;;;;23.20;15.00;;;;;;;-2.59;71.62;102118.05;1715536;83;21022;-52
2020/12/06 01:07:11;;;;;;;25.45;14.28;;;;;;;-2.65;71.51;102113.59;1728668;83;21085;-51
2020/12/06 01:09:42;;;;;;;27.95;13.50;;;;;;;-2.68;71.66;102113.05;1714812;83;21083;-52
2020/12/06 01:12:09;;;;;;;22.25;14.90;;;;;;;-2.69;71.25;102115.38;1728388;83;21423;-52
2020/12/06 01:14:41;;;;;;;20.37;13.80;;;;;;;-2.74;70.81;102125.70;1714711;83;21066;-52
2020/12/06 01:17:16;;;;;;;19.80;12.60;;;;;;;-2.80;71.04;102125.78;1728025;83;21054;-52
2020/12/06 01:19:46;;;;;;;19.57;12.18;;;;;;;-2.84;70.92;102124.40;1714805;82;21489;-52
2020/12/06 01:22:15;;;;;;;24.15;13.35;;;;;;;-2.88;71.05;102122.48;1727893;83;20999;-51
2020/12/06 01:24:42;;;;;;;23.55;13.85;;;;;;;-2.92;70.73;102125.09;1714806;83;21300;-51
2020/12/06 01:27:10;;;;;;;20.00;13.25;;;;;;;-2.97;70.63;102123.34;1728010;83;21010;-51
2020/12/06 01:32:20;;;;;;;17.90;12.55;;;;;;;-2.97;70.59;102116.62;1775964;78;28234;-51
2020/12/06 01:34:53;;;;;;;20.82;12.20;;;;;;;-3.05;70.69;102117.83;1748481;81;21464;-52
2020/12/06 01:37:22;;;;;;;21.60;13.35;;;;;;;-3.08;70.57;102121.64;1748288;82;21403;-52
2020/12/06 01:39:58;;;;;;;18.95;12.03;;;;;;;-3.12;70.50;102118.37;1745574;82;20982;-51
2020/12/06 01:42:26;;;;;;;23.90;14.20;;;;;;;-3.14;70.54;102116.84;1748776;82;21461;-51
2020/12/06 01:44:59;;;;;;;21.85;13.70;;;;;;;-3.19;70.34;102121.77;1748331;82;21014;-51
2020/12/06 01:47:29;;;;;;;19.32;12.90;;;;;;;-3.23;70.26;102129.29;1748513;82;21528;-52
2020/12/06 01:50:01;;;;;;;20.43;13.10;;;;;;;-3.27;70.39;102129.21;1748169;82;21006;-52
2020/12/06 01:52:33;;;;;;;21.02;12.95;;;;;;;-3.28;70.58;102116.75;1748236;82;21050;-52
2020/12/06 01:55:01;;;;;;;19.77;11.57;;;;;;;-3.23;70.54;102123.05;1748363;82;21058;-52
2020/12/06 01:57:29;;;;;;;23.55;12.93;;;;;;;-3.23;70.50;102121.23;1748119;82;21081;-52
2020/12/06 02:00:02;;;;;;;20.23;12.30;;;;;;;-3.27;70.18;102121.15;1725883;81;21057;-53
2020/12/06 02:02:32;;;;;;;17.95;11.63;;;;;;;-3.31;70.24;102125.94;1718261;83;21220;-51
2020/12/06 02:05:05;;;;;;;18.45;13.00;;;;;;;-3.34;70.47;102125.39;1718527;83;21034;-52
2020/12/06 02:07:35;;;;;;;20.08;12.98;;;;;;;-3.34;70.42;102128.91;1718291;83;21422;-51
2020/12/06 02:10:04;;;;;;;18.35;12.60;;;;;;;-3.35;70.58;102122.34;1718377;83;21014;-51
2020/12/06 02:12:46;;;;;;;20.85;12.35;;;;;;;-3.35;70.31;102123.68;1718468;83;21433;-51
2020/12/06 02:15:17;;;;;;;20.90;13.83;;;;;;;-3.36;70.39;102123.31;1691885;83;21212;-50
2020/12/06 02:17:50;;;;;;;23.60;15.15;;;;;;;-3.33;70.45;102127.06;1718352;83;21105;-52
2020/12/06 02:20:20;;;;;;;26.85;15.48;;;;;;;-3.34;70.39;102124.88;1718598;83;21029;-51
2020/12/06 02:22:50;;;;;;;21.25;13.65;;;;;;;-3.34;70.36;102128.91;1718533;83;21042;-51
2020/12/06 02:25:18;;;;;;;27.00;14.13;;;;;;;-3.31;70.42;102127.79;1718396;83;21090;-52
2020/12/06 02:27:47;;;;;;;20.37;12.73;;;;;;;-3.30;70.36;102126.30;1718545;83;21793;-52
2020/12/06 02:30:17;;;;;;;20.23;13.68;;;;;;;-3.27;70.17;102125.18;1718438;83;21069;-51
2020/12/06 02:32:48;;;;;;;23.07;14.40;;;;;;;-3.29;70.02;102127.14;1719365;83;20959;-51
2020/12/06 02:35:30;;;;;;;25.80;13.75;;;;;;;-3.27;70.10;102130.55;1846886;76;28212;-52
2020/12/06 02:38:00;;;;;;;25.48;13.15;;;;;;;-3.36;69.98;102134.94;1816810;78;20993;-51
2020/12/06 02:40:27;;;;;;;22.73;13.72;;;;;;;-3.37;70.00;102132.36;1816203;79;21371;-50
2020/12/06 02:42:57;;;;;;;22.70;13.15;;;;;;;-3.40;69.97;102144.73;1816730;79;21658;-51
2020/12/06 02:45:29;;;;;;;22.00;13.13;;;;;;;-3.48;69.44;102130.16;1816480;79;21033;-51
2020/12/06 02:48:04;;;;;;;23.75;14.83;;;;;;;-3.54;69.69;102131.23;1816631;78;21622;-51
2020/12/06 02:50:31;;;;;;;21.35;12.98;;;;;;;-3.58;69.68;102141.38;1816770;79;21473;-51
2020/12/06 02:53:06;;;;;;;29.52;14.13;;;;;;;-3.63;69.73;102140.94;1816399;78;21190;-51
2020/12/06 02:55:37;;;;;;;18.57;12.63;;;;;;;-3.67;69.67;102151.63;1816617;78;21001;-51
2020/12/06 02:58:04;;;;;;;18.10;12.80;;;;;;;-3.73;69.90;102150.34;1816780;79;21551;-51
2020/12/06 03:00:33;;;;;;;18.67;12.10;;;;;;;-3.73;70.10;102146.78;1784384;80;21033;-50
2020/12/06 03:03:00;;;;;;;19.77;12.00;;;;;;;-3.73;69.80;102150.81;1784392;80;21116;-51
2020/12/06 03:05:32;;;;;;;19.17;11.25;;;;;;;-3.73;69.77;102153.50;1785097;80;21371;-51
2020/12/06 03:08:07;;;;;;;23.15;12.25;;;;;;;-3.74;69.53;102142.42;1784455;80;21056;-51
2020/12/06 03:10:34;;;;;;;24.72;12.68;;;;;;;-3.78;69.47;102145.86;1784147;80;20961;-51
2020/12/06 03:13:02;;;;;;;19.32;11.20;;;;;;;-3.78;69.47;102145.02;1784361;80;21028;-51
2020/12/06 03:15:37;;;;;;;17.05;11.68;;;;;;;-3.75;69.58;102146.08;1784088;80;21037;-51
2020/12/06 03:20:48;;;;;;;19.35;13.00;;;;;;;-3.73;69.36;102161.55;1853334;76;28257;-51
2020/12/06 03:23:16;;;;;;;20.17;11.15;;;;;;;-3.84;69.04;102162.02;1813517;78;21005;-51
2020/12/06 03:25:47;;;;;;;19.87;10.82;;;;;;;-3.92;69.12;102159.66;1812709;79;23515;-51
2020/12/06 03:28:15;;;;;;;19.40;11.25;;;;;;;-3.96;69.48;102164.44;1812851;79;21552;-51
2020/12/06 03:30:44;;;;;;;17.25;10.28;;;;;;;-3.97;69.33;102168.13;1813112;79;21408;-52
2020/12/06 03:33:12;;;;;;;18.48;11.53;;;;;;;-3.97;69.53;102167.26;1812449;79;21059;-52
2020/12/06 03:35:45;;;;;;;16.50;11.30;;;;;;;-3.99;69.42;102164.70;1812888;79;20973;-51
2020/12/06 03:38:10;;;;;;;20.52;10.55;;;;;;;-3.99;69.58;102175.45;1811779;78;21162;-51
2020/12/06 03:40:46;;;;;;;20.23;11.15;;;;;;;-3.94;69.64;102172.34;1812570;79;21594;-51
2020/12/06 03:43:13;;;;;;;17.57;11.20;;;;;;;-3.97;69.40;102167.26;1812524;78;21017;-51
2020/12/06 03:45:43;;;;;;;18.67;11.20;;;;;;;-4.01;69.53;102172.89;1812215;79;21168;-51
2020/12/06 03:48:10;;;;;;;20.90;11.75;;;;;;;-4.02;69.43;102182.43;1812499;79;21044;-51
2020/12/06 03:50:43;;;;;;;20.00;12.73;;;;;;;-4.03;69.54;102179.37;1811605;79;21290;-52
2020/12/06 03:53:15;;;;;;;19.30;10.88;;;;;;;-4.03;69.55;102186.09;1812542;79;21013;-51
2020/12/06 03:55:43;;;;;;;21.82;12.33;;;;;;;-4.04;69.62;102186.59;1812453;79;21052;-52
2020/12/06 03:58:11;;;;;;;18.50;10.90;;;;;;;-4.06;69.65;102185.89;1810254;79;20997;-51
2020/12/06 04:00:39;;;;;;;21.40;13.72;;;;;;;-4.05;69.64;102190.75;1780659;80;20942;-52
2020/12/06 04:03:07;;;;;;;24.82;13.65;;;;;;;-4.06;69.69;102187.23;1780572;80;22259;-52
2020/12/06 04:05:38;;;;;;;27.30;14.10;;;;;;;-4.05;69.68;102188.07;1780582;80;21037;-52
2020/12/06 04:08:06;;;;;;;21.00;13.90;;;;;;;-4.10;69.65;102193.84;1780721;80;21064;-51
2020/12/06 04:10:38;;;;;;;22.62;14.05;;;;;;;-4.12;69.64;102189.59;1780606;80;21005;-53
2020/12/06 04:13:07;;;;;;;22.55;16.25;;;;;;;-4.15;69.71;102196.58;1780355;80;21004;-51
2020/12/06 04:15:35;;;;;;;22.85;14.68;;;;;;;-4.15;69.73;102200.09;1780630;80;21205;-52
2020/12/06 04:18:13;;;;;;;20.95;13.95;;;;;;;-4.13;69.50;102199.95;1775431;79;28827;-52
2020/12/06 04:20:46;;;;;;;22.15;13.60;;;;;;;-4.25;69.52;102196.01;1748348;82;20994;-52
2020/12/06 04:23:14;;;;;;;24.87;15.18;;;;;;;-4.27;69.77;102199.33;1748204;82;21290;-51
2020/12/06 04:25:45;;;;;;;25.97;16.93;;;;;;;-4.27;69.79;102194.44;1748546;82;21046;-51
2020/12/06 04:28:13;;;;;;;22.77;15.90;;;;;;;-4.31;69.71;102202.42;1747853;81;21043;-52
2020/12/06 04:30:45;;;;;;;28.40;17.00;;;;;;;-4.30;69.68;102201.41;1745446;82;21022;-51
2020/12/06 04:33:14;;;;;;;23.85;16.07;;;;;;;-4.31;69.70;102208.63;1748627;81;21006;-51
2020/12/06 04:35:43;;;;;;;27.42;15.23;;;;;;;-4.32;69.40;102208.75;1748375;82;21428;-51
2020/12/06 04:38:16;;;;;;;31.45;16.75;;;;;;;-4.37;69.29;102203.80;1747316;82;21050;-51
2020/12/06 04:40:48;;;;;;;25.17;17.10;;;;;;;-4.43;69.28;102205.17;1748382;82;21002;-51
2020/12/06 04:43:23;;;;;;;25.80;16.65;;;;;;;-4.43;69.54;102208.32;1748127;82;21081;-52
2020/12/06 04:45:50;;;;;;;28.42;17.60;;;;;;;-4.45;69.51;102203.09;1748627;82;21607;-52
2020/12/06 04:48:29;;;;;;;25.43;16.45;;;;;;;-4.45;69.58;102200.91;1748254;82;22168;-52
2020/12/06 04:51:02;;;;;;;24.00;15.43;;;;;;;-4.47;69.58;102202.38;1699897;82;20971;-52
2020/12/06 04:53:38;;;;;;;25.75;16.48;;;;;;;-4.47;69.72;102206.41;1748207;82;21034;-52
2020/12/06 04:56:12;;;;;;;25.05;15.63;;;;;;;-4.45;69.90;102201.75;1748310;82;21109;-52
2020/12/06 04:58:42;;;;;;;22.25;15.45;;;;;;;-4.42;69.86;102201.48;1739642;82;20990;-51
2020/12/06 05:01:11;;;;;;;21.87;14.20;;;;;;;-4.37;69.86;102207.81;1718472;82;21385;-52
2020/12/06 05:03:41;;;;;;;23.83;15.50;;;;;;;-4.34;69.45;102208.89;1690871;83;20979;-51
2020/12/06 05:06:11;;;;;;;24.25;14.85;;;;;;;-4.38;69.24;102204.77;1690734;83;21018;-52
2020/12/06 05:08:42;;;;;;;29.32;16.32;;;;;;;-4.39;69.11;102211.10;1718523;83;21006;-52
2020/12/06 05:11:09;;;;;;;25.52;17.55;;;;;;;-4.39;69.37;102204.40;1718529;83;21034;-51
2020/12/06 05:13:38;;;;;;;24.63;15.75;;;;;;;-4.37;69.29;102215.87;1718567;83;21370;-52
2020/12/06 05:16:12;;;;;;;25.00;14.65;;;;;;;-4.34;69.37;102212.41;1718330;82;21053;-50
2020/12/06 05:18:44;;;;;;;24.45;14.55;;;;;;;-4.27;69.29;102208.72;1719513;83;21077;-52
2020/12/06 05:21:11;;;;;;;20.62;13.95;;;;;;;-4.23;69.14;102222.23;1719156;83;21111;-52
2020/12/06 05:23:44;;;;;;;25.52;14.55;;;;;;;-4.22;68.87;102218.55;1719579;83;21111;-52
2020/12/06 05:26:16;;;;;;;27.27;14.00;;;;;;;-4.26;68.44;102203.69;1669906;83;21219;-53
2020/12/06 05:28:47;;;;;;;16.27;10.88;;;;;;;-4.29;68.49;102211.17;1671178;83;21053;-52
2020/12/06 05:31:16;;;;;;;20.40;12.55;;;;;;;-4.31;68.33;102209.97;1718842;83;21307;-52
2020/12/06 05:33:48;;;;;;;16.48;11.33;;;;;;;-4.35;68.28;102212.55;1718538;83;21836;-51
2020/12/06 05:36:18;;;;;;;18.70;11.90;;;;;;;-4.37;68.46;102214.02;1718846;83;21073;-53
2020/12/06 05:38:51;;;;;;;17.30;10.60;;;;;;;-4.37;68.59;102215.87;1718509;83;22365;-52
2020/12/06 05:41:22;;;;;;;18.30;11.60;;;;;;;-4.36;68.38;102204.13;1718692;83;20991;-52
2020/12/06 05:43:51;;;;;;;17.42;11.93;;;;;;;-4.35;68.41;102212.55;1692715;83;21002;-52
2020/12/06 05:46:25;;;;;;;19.87;11.88;;;;;;;-4.31;68.35;102217.17;1718980;83;21101;-52
2020/12/06 05:48:52;;;;;;;17.10;11.65;;;;;;;-4.31;67.99;102221.20;1718804;83;21038;-51
2020/12/06 05:51:22;;;;;;;19.40;11.55;;;;;;;-4.35;67.72;102223.28;1718527;83;21215;-52
2020/12/06 05:53:52;;;;;;;16.87;11.18;;;;;;;-4.35;67.76;102224.62;1716753;83;20995;-51
2020/12/06 05:56:24;;;;;;;16.25;10.30;;;;;;;-4.37;67.63;102226.59;1718725;83;21307;-51
2020/12/06 05:58:52;;;;;;;16.15;10.95;;;;;;;-4.38;67.46;102231.59;1718659;82;21850;-51
2020/12/06 06:01:42;;;;;;;16.65;10.60;;;;;;;-4.38;67.26;102239.64;1773814;79;28656;-51
2020/12/06 06:04:07;;;;;;;17.70;10.95;;;;;;;-4.47;67.36;102235.04;1743428;82;21545;-51
2020/12/06 06:06:41;;;;;;;17.52;10.15;;;;;;;-4.48;67.39;102234.70;1748203;82;21006;-51
2020/12/06 06:09:12;;;;;;;15.95;10.00;;;;;;;-4.47;67.25;102249.80;1748054;82;21022;-51
2020/12/06 06:11:48;;;;;;;16.85;9.25;;;;;;;-4.49;66.76;102246.41;1748453;82;21659;-53
2020/12/06 06:14:21;;;;;;;21.55;10.15;;;;;;;-4.53;66.51;102248.01;1748314;82;21620;-52
2020/12/06 06:16:51;;;;;;;19.27;9.90;;;;;;;-4.54;66.66;102246.80;1748341;82;20994;-52
2020/12/06 06:19:22;;;;;;;18.70;10.20;;;;;;;-4.51;66.53;102243.35;1748324;82;21109;-52
2020/12/06 06:22:00;;;;;;;13.72;9.48;;;;;;;-4.48;66.55;102252.14;1747998;82;21042;-51
2020/12/06 06:24:32;;;;;;;21.62;9.30;;;;;;;-4.45;66.21;102245.17;1747039;82;21042;-53
2020/12/06 06:26:59;;;;;;;15.80;10.75;;;;;;;-4.43;66.57;102250.77;1717663;82;21057;-53
2020/12/06 06:29:27;;;;;;;16.00;9.83;;;;;;;-4.40;66.31;102250.51;1743420;82;21030;-53
2020/12/06 06:32:03;;;;;;;22.60;13.08;;;;;;;-4.36;65.84;102249.73;1719260;82;21467;-53
2020/12/06 06:34:34;;;;;;;21.82;11.00;;;;;;;-4.37;65.61;102262.81;1747746;81;21083;-54
2020/12/06 06:37:14;;;;;;;19.77;11.35;;;;;;;-4.37;65.88;102257.45;1747853;82;21140;-52
2020/12/06 06:39:44;;;;;;;17.32;11.55;;;;;;;-4.32;65.83;102255.20;1748087;82;21050;-53
2020/12/06 06:42:13;;;;;;;18.32;10.88;;;;;;;-4.28;65.68;102256.66;1748264;82;20982;-52
2020/12/06 06:44:45;;;;;;;17.67;10.78;;;;;;;-4.22;65.75;102250.75;1748183;82;21041;-52
2020/12/06 06:47:15;;;;;;;20.23;12.98;;;;;;;-4.12;65.51;102255.35;1748142;82;21686;-52
2020/12/06 06:49:59;;;;;;;20.77;12.03;;;;;;;-4.05;65.39;102259.20;1743565;81;21038;-52
2020/12/06 06:52:34;;;;;;;17.70;11.10;;;;;;;-3.97;65.03;102254.03;1748405;82;20990;-53
2020/12/06 06:55:02;;;;;;;22.13;12.35;;;;;;;-3.98;64.73;102255.02;1748343;82;21584;-52
2020/12/06 06:57:31;;;;;;;22.20;12.93;;;;;;;-3.94;64.99;102254.23;1747945;82;21571;-52
2020/12/06 07:00:03;;;;;;;18.90;11.97;;;;;;;-3.86;64.52;102255.30;1720615;82;21839;-53
2020/12/06 07:02:45;;;;;;;19.20;11.73;;;;;;;-3.80;64.02;102248.55;1719102;83;21220;-52
2020/12/06 07:08:03;;;;;;;21.17;12.23;;;;;;;-3.63;63.77;102251.07;1888866;76;28201;-52
2020/12/06 07:10:31;;;;;;;15.80;10.18;;;;;;;-3.61;63.52;102247.77;1849440;77;21056;-52
2020/12/06 07:13:01;;;;;;;19.42;11.85;;;;;;;-3.47;63.37;102245.22;1801502;77;21203;-52
2020/12/06 07:15:29;;;;;;;23.87;10.85;;;;;;;-3.37;63.17;102247.44;1800105;77;21032;-52
2020/12/06 07:17:58;;;;;;;16.55;10.53;;;;;;;-3.28;62.23;102253.83;1858916;77;20962;-53
2020/12/06 07:20:32;;;;;;;21.55;11.78;;;;;;;-3.24;62.09;102258.42;1859569;77;21033;-51
2020/12/06 07:25:54;;;;;;;16.97;11.30;;;;;;;-3.03;61.62;102262.36;1851770;77;28143;-52
2020/12/06 07:28:23;;;;;;;15.88;10.10;;;;;;;-2.95;61.38;102263.37;1824326;78;21464;-52
2020/12/06 07:30:53;;;;;;;15.10;10.40;;;;;;;-2.79;60.61;102261.50;1824375;78;21009;-52
2020/12/06 07:33:28;;;;;;;17.05;10.63;;;;;;;-2.72;60.46;102269.00;1823841;78;21037;-53
2020/12/06 07:35:58;;;;;;;25.27;11.45;;;;;;;-2.57;60.15;102267.60;1823088;78;21040;-52
2020/12/06 07:38:28;;;;;;;19.23;10.68;;;;;;;-2.32;59.80;102272.05;1824240;78;21586;-54
2020/12/06 07:41:04;;;;;;;16.80;10.65;;;;;;;-2.21;58.62;102281.32;1824183;78;21032;-51
2020/12/06 07:43:33;;;;;;;18.73;12.20;;;;;;;-2.22;58.39;102281.47;1824050;78;22268;-52
2020/12/06 07:46:17;;;;;;;15.70;10.58;;;;;;;-2.21;58.71;102277.28;1823972;78;20994;-52
2020/12/06 07:48:51;;;;;;;16.17;10.70;;;;;;;-2.22;57.69;102272.88;1824059;78;20998;-52
2020/12/06 07:51:26;;;;;;;23.42;11.22;;;;;;;-2.28;57.06;102273.47;1824083;78;21017;-52
2020/12/06 07:54:00;;;;;;;19.10;10.72;;;;;;;-2.38;57.24;102275.32;1823870;78;21075;-54
2020/12/06 07:56:30;;;;;;;;;;;;;;;-2.40;56.69;102277.29;1826625;78;21187;-53
2020/12/06 07:59:16;;;;;;;18.48;10.05;;;;;;;-2.45;56.97;102273.69;1799450;78;20194;-52
2020/12/06 08:01:55;;;;;;;15.43;9.75;;;;;;;-2.35;57.55;102272.34;1918008;73;29007;-53
2020/12/06 08:04:27;;;;;;;19.80;11.78;;;;;;;-2.22;56.25;102275.58;1885318;76;21007;-52
2020/12/06 08:07:02;;;;;;;18.30;10.13;;;;;;;-2.22;55.69;102266.66;1885420;76;21242;-51
2020/12/06 08:09:42;;;;;;;23.15;11.18;;;;;;;-2.07;56.24;102267.92;1885592;76;21078;-53
2020/12/06 08:12:10;;;;;;;15.85;10.40;;;;;;;-1.95;55.38;102275.33;1885563;76;20929;-52
2020/12/06 08:14:42;;;;;;;17.73;10.90;;;;;;;-1.89;55.88;102276.08;1885693;76;20968;-51
2020/12/06 08:17:12;;;;;;;17.50;10.95;;;;;;;-1.75;55.10;102270.73;1885425;76;20973;-52
2020/12/06 08:19:41;;;;;;;16.95;10.53;;;;;;;-1.73;55.26;102279.50;1884976;76;21191;-52
2020/12/06 08:22:13;;;;;;;20.65;11.68;;;;;;;-1.71;55.16;102276.70;1885321;76;21070;-52
2020/12/06 08:24:45;;;;;;;19.00;11.33;;;;;;;-1.81;55.35;102281.59;1885672;76;21078;-52
2020/12/06 08:27:21;;;;;;;17.32;11.83;;;;;;;-1.84;55.37;102279.68;1885329;76;20992;-53
2020/12/06 08:29:54;;;;;;;18.07;10.08;;;;;;;-1.78;54.68;102271.88;1885466;76;21424;-52
2020/12/06 08:32:28;;;;;;;20.25;10.95;;;;;;;-1.71;54.47;102278.05;1853059;76;21883;-52
2020/12/06 08:34:56;;;;;;;20.70;11.22;;;;;;;-1.74;53.86;102267.89;1885495;76;20937;-52
2020/12/06 08:37:25;;;;;;;27.00;12.98;;;;;;;-1.66;54.10;102266.31;1885297;76;20976;-52
2020/12/06 08:39:54;;;;;;;26.20;10.93;;;;;;;-1.59;53.94;102262.89;1884994;76;21633;-52
2020/12/06 08:42:24;;;;;;;17.42;9.50;;;;;;;-1.48;53.68;102267.73;1822839;76;21016;-52
2020/12/06 08:45:00;;;;;;;18.05;10.32;;;;;;;-1.42;53.11;102264.44;1884182;76;21096;-52
2020/12/06 08:47:45;;;;;;;18.05;10.38;;;;;;;-1.28;53.60;102261.75;1885605;76;21380;-52
2020/12/06 08:50:19;;;;;;;18.27;10.05;;;;;;;-1.07;52.35;102263.69;1885653;76;22079;-53
2020/12/06 08:52:52;;;;;;;18.17;10.53;;;;;;;-0.95;52.33;102260.78;1885138;76;21482;-54
2020/12/06 08:55:29;;;;;;;;;;;;;;;-0.56;52.39;102258.66;1888466;76;20933;-54
2020/12/06 08:57:58;;;;;;;13.93;9.28;;;;;;;0.07;50.90;102261.32;1879513;76;21333;-54
2020/12/06 09:00:31;;;;;;;18.55;9.20;;;;;;;0.42;49.76;102255.45;1855086;76;21023;-52
2020/12/06 09:03:02;;;;;;;20.17;9.88;;;;;;;0.64;49.21;102259.44;1825975;78;21631;-52
2020/12/06 09:05:33;;;;;;;19.23;9.93;;;;;;;0.83;48.22;102252.94;1823215;78;20985;-52
2020/12/06 09:08:13;;;;;;;22.80;11.08;;;;;;;0.96;47.54;102253.30;1846241;76;29296;-53
2020/12/06 09:10:40;;;;;;;18.02;9.35;;;;;;;1.19;47.36;102254.88;1816570;79;20978;-53
2020/12/06 09:13:09;;;;;;;17.85;10.03;;;;;;;1.60;46.98;102262.70;1816756;79;22138;-53
2020/12/06 09:15:40;;;;;;;18.12;10.20;;;;;;;1.98;45.88;102258.98;1816335;79;20989;-53
2020/12/06 09:18:13;;;;;;;17.92;10.88;;;;;;;2.30;44.32;102255.38;1816304;79;20993;-53
2020/12/06 09:20:38;;;;;;;18.27;9.63;;;;;;;2.57;44.30;102250.52;1815904;79;20935;-53
2020/12/06 09:23:10;;;;;;;18.77;10.03;;;;;;;2.86;43.83;102254.45;1816566;78;21030;-52
2020/12/06 09:25:39;;;;;;;18.25;12.15;;;;;;;3.20;42.82;102254.13;1816475;79;20978;-53
2020/12/06 09:28:07;;;;;;;18.23;9.78;;;;;;;3.18;41.71;102256.16;1816483;79;21061;-53
2020/12/06 09:30:37;;;;;;;15.60;9.80;;;;;;;2.98;41.03;102254.41;1816564;79;21001;-53
2020/12/06 09:33:08;;;;;;;15.43;9.48;;;;;;;2.95;41.35;102250.70;1815589;79;21103;-53
2020/12/06 09:35:42;;;;;;;15.72;10.38;;;;;;;3.03;40.43;102252.50;1816600;78;21551;-53
2020/12/06 09:38:09;;;;;;;15.25;9.73;;;;;;;3.10;40.77;102249.41;1816554;79;21204;-53
2020/12/06 09:40:36;;;;;;;19.07;9.20;;;;;;;3.38;41.14;102248.38;1816508;79;21568;-53
2020/12/06 09:43:04;;;;;;;15.25;9.88;;;;;;;3.73;39.63;102250.16;1816265;79;21001;-53
2020/12/06 09:45:32;;;;;;;17.82;8.58;;;;;;;3.61;39.39;102240.73;1816531;79;21014;-53
2020/12/06 09:48:09;;;;;;;17.65;9.78;;;;;;;3.63;39.63;102237.34;1816563;78;20998;-53
2020/12/06 09:50:37;;;;;;;17.05;9.85;;;;;;;3.82;38.86;102234.63;1816504;78;21185;-53
2020/12/06 09:53:09;;;;;;;23.50;9.78;;;;;;;3.82;39.05;102241.94;1816565;79;21025;-53
2020/12/06 09:55:36;;;;;;;18.42;9.85;;;;;;;3.96;38.44;102230.25;1816712;79;21017;-53
2020/12/06 09:58:05;;;;;;;16.17;10.72;;;;;;;4.06;38.73;102226.73;1807973;79;21604;-53
2020/12/06 10:00:38;;;;;;;24.30;10.18;;;;;;;4.28;38.27;102224.13;1784282;80;20934;-53
2020/12/06 10:03:06;;;;;;;28.23;10.50;;;;;;;4.54;38.19;102224.16;1784131;79;21264;-53
2020/12/06 10:05:34;;;;;;;19.37;9.50;;;;;;;4.60;37.17;102222.03;1784377;80;21164;-53
2020/12/06 10:08:09;;;;;;;16.27;9.23;;;;;;;4.63;37.89;102225.73;1784291;79;20989;-53
2020/12/06 10:10:40;;;;;;;20.37;9.20;;;;;;;5.03;36.60;102227.61;1784161;80;21471;-53
2020/12/06 10:13:07;;;;;;;19.85;10.55;;;;;;;5.36;36.54;102212.96;1784374;80;20965;-52
2020/12/06 10:15:35;;;;;;;19.27;9.78;;;;;;;5.56;36.06;102214.17;1784397;80;21635;-53
2020/12/06 10:18:03;;;;;;;13.90;9.58;;;;;;;5.77;36.20;102218.77;1784116;80;21666;-53
2020/12/06 10:20:32;;;;;;;18.00;10.15;;;;;;;5.98;34.71;102216.02;1783860;80;21659;-52
2020/12/06 10:23:30;;;;;;;18.73;9.88;;;;;;;5.98;35.59;102215.19;1799651;78;22750;-53
2020/12/06 10:25:58;;;;;;;19.40;9.58;;;;;;;6.18;34.92;102209.86;1732346;81;21006;-53
2020/12/06 10:28:26;;;;;;;24.27;10.72;;;;;;;6.33;34.57;102204.27;1711627;82;21479;-53
2020/12/06 10:30:53;;;;;;;29.45;16.25;;;;;;;6.46;34.51;102204.86;1704420;82;21073;-53
2020/12/06 10:33:21;;;;;;;16.25;10.18;;;;;;;6.30;34.09;102204.68;1727856;82;21105;-53
2020/12/06 10:35:48;;;;;;;14.10;7.85;;;;;;;6.20;34.67;102208.63;1706529;82;21621;-53
2020/12/06 10:38:16;;;;;;;14.30;9.03;;;;;;;6.30;34.57;102198.72;1741126;81;21069;-52
2020/12/06 10:40:43;;;;;;;20.45;10.18;;;;;;;6.17;34.03;102207.67;1712918;82;21287;-53
2020/12/06 10:43:10;;;;;;;17.40;10.35;;;;;;;5.85;34.13;102203.09;1717380;82;21366;-53
2020/12/06 10:45:38;;;;;;;15.45;8.98;;;;;;;5.57;34.90;102201.70;1716649;83;20982;-53
2020/12/06 10:48:05;;;;;;;12.98;8.65;;;;;;;5.65;34.73;102204.83;1727806;81;21064;-54
2020/12/06 10:50:33;;;;;;;16.37;9.13;;;;;;;5.98;34.39;102193.36;1732520;81;21096;-53
2020/12/06 10:53:00;;;;;;;19.90;9.63;;;;;;;6.31;34.17;102190.00;1754287;81;21456;-53
2020/12/06 10:55:28;;;;;;;17.42;8.93;;;;;;;6.32;33.78;102197.15;1728459;82;21009;-53
2020/12/06 10:57:56;;;;;;;20.08;10.38;;;;;;;6.43;34.05;102198.45;1732020;81;21053;-54
2020/12/06 11:00:24;;;;;;;17.12;9.80;;;;;;;6.51;33.70;102186.83;1719978;83;21034;-51
2020/12/06 11:02:52;;;;;;;18.42;9.60;;;;;;;6.60;33.41;102190.76;1710123;83;21058;-52
2020/12/06 11:05:19;;;;;;;16.48;10.50;;;;;;;6.56;33.58;102188.44;1729999;81;21164;-52
2020/12/06 11:07:47;;;;;;;17.30;9.13;;;;;;;6.70;33.78;102189.34;1744675;81;20989;-52
2020/12/06 11:10:14;;;;;;;17.95;9.45;;;;;;;7.00;33.24;102184.06;1744553;81;21025;-52
2020/12/06 11:12:43;;;;;;;17.90;9.50;;;;;;;7.28;33.24;102182.55;1753467;81;21008;-53
2020/12/06 11:15:10;;;;;;;24.35;10.28;;;;;;;7.52;32.06;102183.83;1747729;81;21574;-52
2020/12/06 11:17:38;;;;;;;14.15;8.63;;;;;;;7.21;32.07;102185.27;1754741;81;21190;-53
2020/12/06 11:20:06;;;;;;;19.52;9.28;;;;;;;7.20;32.55;102176.77;1678215;84;21758;-53
2020/12/06 11:22:33;;;;;;;18.17;12.13;;;;;;;7.48;32.38;102173.53;1674954;84;21048;-54
2020/12/06 11:25:01;;;;;;;18.50;9.05;;;;;;;7.59;32.15;102176.47;1754241;81;21062;-52
2020/12/06 11:27:28;;;;;;;19.73;9.48;;;;;;;7.59;31.71;102173.73;1680915;84;21896;-53
2020/12/06 11:29:59;;;;;;;23.42;10.13;;;;;;;7.57;31.83;102172.25;1718079;83;21204;-51
2020/12/06 11:32:26;;;;;;;25.95;9.43;;;;;;;7.58;31.60;102169.84;1684055;84;21080;-53
2020/12/06 11:34:54;;;;;;;23.87;9.55;;;;;;;7.60;31.60;102164.99;1747036;81;21291;-52
2020/12/06 11:37:22;;;;;;;18.30;8.63;;;;;;;7.65;31.71;102169.85;1749191;81;21611;-54
2020/12/06 11:39:51;;;;;;;16.25;9.18;;;;;;;7.93;30.94;102165.48;1730572;81;20990;-52
2020/12/06 11:45:05;;;;;;;18.07;8.80;;;;;;;7.79;30.49;102164.68;1888674;76;23232;-54